Strona główna
METAR-TAF:

METAR-TAF

Lotnisko :

Port lotniczy Kraków-Balice

Kraków, Polska

Szerokość geograficzna: 50-05N, Długość geograficzna: 019-48E, wysokość: 237 m

Aktualna obserwacja pogody

Raport powstał 29 minut temu, godzina 11:30 UTC
Wiatr 4 kt od południowo-południowy wschód, zmienny między wschód i południowo-południowy zachód
Temperatura 22°C
Wilgotność 35%
Ciśnienie 1022 hPa
Widzialność 10 km lub więcej
Brak chmur poniżej 1500 m i brak chmur cumulonimbus

METAR: EPKK 161130Z 16004KT 080V200 CAVOK 22/06 Q1022

czas: 13:59 (11:59 UTC)

Prognoza

Raport powstał 29 minut temu, godzina 11:30 UTC
Prognoza ważna od 16 godzina 12 UTC do 17 godzina 12 UTC
Wiatr 4 kt od wschód
Widzialność 10 km lub więcej
Brak chmur poniżej 1500 m i brak chmur cumulonimbus
Prawdopodobieństwo 40%
od 17 godzina 03 UTC do 17 godzina 07 UTC
Widzialność: 2000 m
zamglenie

TAF: EPKK 161130Z 1612/1712 08004KT CAVOK PROB40 1703/1707 2000 BR

Obserwacja i prognoza pogody dla ponad 4000 lotnisk (raport METAR i TAF).

Dostępne stacje oznaczono żółtymi i czerwonymi punktami na mapie.

Najedź kursorem aby zobaczyć nazwę stacji.

Kliknij aby zobaczyć obserwacje i prognozy pogody.

Aby zmienić mapę: kliknij na zielony przycisk z czarnym krzyżykiem, aby powiększyć; na zielony przycisk z myślnikiem, aby pomniejszyć; na zielone strzałki, aby przejść do map sąsiednich.


METAR-TAF: